Time;durP1;ratioP1;P1;durP2;ratioP2;P2;SDS_P1;SDS_P2;PMS_P1;PMS_P2;Temp;Humidity;BMP_temperature;BMP_pressure;BME280_temperature;BME280_humidity;BME280_pressure;Samples;Min_cycle;Max_cycle;Signal;HPM_P1;HPM_P2
2020/12/23 00:01:23;;;;;;;10.32;7.53;;;;;;;;;;5010061;28;20085;-74
2020/12/23 00:03:49;;;;;;;10.32;7.10;;;;;;;;;;5009179;28;20130;-74
2020/12/23 00:06:15;;;;;;;9.95;6.90;;;;;;;;;;5012681;28;20041;-74
2020/12/23 00:08:41;;;;;;;16.55;10.38;;;;;;;;;;5012623;28;20033;-75
2020/12/23 00:11:07;;;;;;;11.50;8.27;;;;;;;;;;5012657;28;20018;-75
2020/12/23 00:13:33;;;;;;;18.02;11.45;;;;;;;;;;5012557;28;20022;-75
2020/12/23 00:15:59;;;;;;;10.95;8.25;;;;;;;;;;5012601;28;20018;-75
2020/12/23 00:18:28;;;;;;;20.10;10.68;;;;;;;;;;5012831;28;20021;-75
2020/12/23 00:20:54;;;;;;;11.27;7.97;;;;;;;;;;5012616;28;20478;-75
2020/12/23 00:23:20;;;;;;;9.90;7.70;;;;;;;;;;5012401;28;20125;-75
2020/12/23 00:25:46;;;;;;;10.48;7.25;;;;;;;;;;5012532;28;20033;-74
2020/12/23 00:28:12;;;;;;;10.88;7.57;;;;;;;;;;5012639;28;20033;-75
2020/12/23 00:30:38;;;;;;;13.35;9.07;;;;;;;;;;5012423;28;20022;-75
2020/12/23 00:33:04;;;;;;;16.92;10.65;;;;;;;;;;5012410;28;20033;-75
2020/12/23 00:35:31;;;;;;;11.90;8.35;;;;;;;;;;5012416;28;20026;-75
2020/12/23 00:37:57;;;;;;;9.30;7.60;;;;;;;;;;5012519;28;20428;-74
2020/12/23 00:40:23;;;;;;;11.95;8.55;;;;;;;;;;5012578;28;20450;-74
2020/12/23 00:42:49;;;;;;;10.45;8.20;;;;;;;;;;5012262;28;20037;-74
2020/12/23 00:45:15;;;;;;;12.98;8.73;;;;;;;;;;5012264;28;20030;-75
2020/12/23 00:47:41;;;;;;;16.50;8.75;;;;;;;;;;5012330;28;20022;-75
2020/12/23 00:50:07;;;;;;;14.95;9.13;;;;;;;;;;5012221;28;20030;-74
2020/12/23 00:52:33;;;;;;;11.80;8.73;;;;;;;;;;5011974;28;20018;-75
2020/12/23 00:54:59;;;;;;;11.75;8.00;;;;;;;;;;5012137;28;20037;-74
2020/12/23 00:57:25;;;;;;;13.27;9.05;;;;;;;;;;5012401;28;20018;-75
2020/12/23 00:59:51;;;;;;;11.07;8.30;;;;;;;;;;5011977;28;20148;-74
2020/12/23 01:02:17;;;;;;;11.25;7.75;;;;;;;;;;5012048;28;20145;-74
2020/12/23 01:04:43;;;;;;;11.60;8.13;;;;;;;;;;5012089;28;20390;-75
2020/12/23 01:07:09;;;;;;;10.88;7.07;;;;;;;;;;5012011;28;20548;-75
2020/12/23 01:09:35;;;;;;;11.63;7.55;;;;;;;;;;5012068;28;20706;-74
2020/12/23 01:12:01;;;;;;;8.38;6.53;;;;;;;;;;5012767;28;20037;-74
2020/12/23 01:14:27;;;;;;;11.23;7.10;;;;;;;;;;5015971;28;20018;-74
2020/12/23 01:16:53;;;;;;;9.48;7.07;;;;;;;;;;5015871;28;20406;-75
2020/12/23 01:19:19;;;;;;;10.10;6.72;;;;;;;;;;5015522;28;20026;-75
2020/12/23 01:21:45;;;;;;;10.23;6.38;;;;;;;;;;5015578;28;20080;-75
2020/12/23 01:24:12;;;;;;;8.75;6.40;;;;;;;;;;5015259;28;20030;-74
2020/12/23 01:26:38;;;;;;;8.15;6.22;;;;;;;;;;5015373;28;20026;-75
2020/12/23 01:29:04;;;;;;;6.70;5.55;;;;;;;;;;5015225;28;20465;-74
2020/12/23 01:31:30;;;;;;;7.38;5.78;;;;;;;;;;5015045;28;20026;-74
2020/12/23 01:33:56;;;;;;;8.43;6.03;;;;;;;;;;5015323;28;20025;-74
2020/12/23 01:36:22;;;;;;;8.80;6.03;;;;;;;;;;5015332;28;20030;-74
2020/12/23 01:38:48;;;;;;;6.90;5.47;;;;;;;;;;4997496;28;20053;-74
2020/12/23 01:41:14;;;;;;;7.75;6.13;;;;;;;;;;4997612;28;20485;-75
2020/12/23 01:43:41;;;;;;;8.02;6.10;;;;;;;;;;5015071;28;20084;-75
2020/12/23 01:46:07;;;;;;;7.85;6.25;;;;;;;;;;5015027;28;20109;-75
2020/12/23 01:48:33;;;;;;;9.05;6.25;;;;;;;;;;5015033;28;20053;-74
2020/12/23 01:51:02;;;;;;;9.57;6.50;;;;;;;;;;5015007;28;20022;-74
2020/12/23 01:53:29;;;;;;;7.07;6.38;;;;;;;;;;5014888;28;20018;-75
2020/12/23 01:55:57;;;;;;;9.55;7.15;;;;;;;;;;5015162;28;20436;-75
2020/12/23 01:58:23;;;;;;;9.30;6.90;;;;;;;;;;5014692;28;20478;-75
2020/12/23 02:00:49;;;;;;;9.88;7.55;;;;;;;;;;5014926;28;20433;-74
2020/12/23 02:03:16;;;;;;;10.02;7.20;;;;;;;;;;5012136;28;20046;-74
2020/12/23 02:05:42;;;;;;;9.80;6.30;;;;;;;;;;5013528;28;20017;-74
2020/12/23 02:08:09;;;;;;;9.55;6.78;;;;;;;;;;5014494;28;20121;-74
2020/12/23 02:10:36;;;;;;;11.68;7.47;;;;;;;;;;5014488;28;20470;-74
2020/12/23 02:13:02;;;;;;;11.65;7.50;;;;;;;;;;5014502;28;20026;-74
2020/12/23 02:15:28;;;;;;;10.48;7.18;;;;;;;;;;5014325;28;20055;-73
2020/12/23 02:17:55;;;;;;;12.00;8.55;;;;;;;;;;4996847;28;20065;-75
2020/12/23 02:20:21;;;;;;;8.40;6.45;;;;;;;;;;5014516;28;20033;-74
2020/12/23 02:22:47;;;;;;;10.50;6.88;;;;;;;;;;5013979;28;20022;-74
2020/12/23 02:25:14;;;;;;;9.82;6.68;;;;;;;;;;5014215;28;20030;-74
2020/12/23 02:27:40;;;;;;;10.85;6.97;;;;;;;;;;5014193;28;20014;-74
2020/12/23 02:30:07;;;;;;;9.35;6.97;;;;;;;;;;5014085;28;20436;-73
2020/12/23 02:32:33;;;;;;;9.27;7.47;;;;;;;;;;4996388;28;20030;-74
2020/12/23 02:34:59;;;;;;;10.20;7.00;;;;;;;;;;5013962;28;20113;-74
2020/12/23 02:37:25;;;;;;;11.80;7.30;;;;;;;;;;5014252;28;20030;-75
2020/12/23 02:39:52;;;;;;;8.07;6.32;;;;;;;;;;5014076;28;20052;-74
2020/12/23 02:42:19;;;;;;;8.32;6.60;;;;;;;;;;5013940;28;20030;-74
2020/12/23 02:44:47;;;;;;;11.05;6.22;;;;;;;;;;5013765;28;20045;-74
2020/12/23 02:47:14;;;;;;;9.10;6.85;;;;;;;;;;5014058;28;20064;-74
2020/12/23 02:49:40;;;;;;;10.07;6.78;;;;;;;;;;5013832;28;20026;-73
2020/12/23 02:52:07;;;;;;;11.60;7.65;;;;;;;;;;5013715;28;20024;-72
2020/12/23 02:54:33;;;;;;;15.77;8.68;;;;;;;;;;5013767;28;20032;-72
2020/12/23 02:56:59;;;;;;;9.75;7.38;;;;;;;;;;5013549;28;20084;-72
2020/12/23 02:59:25;;;;;;;25.10;8.38;;;;;;;;;;5013700;28;20053;-72
2020/12/23 03:01:52;;;;;;;7.97;6.38;;;;;;;;;;5013781;28;20033;-71
2020/12/23 03:04:18;;;;;;;28.45;8.18;;;;;;;;;;5013481;28;20034;-72
2020/12/23 03:06:44;;;;;;;8.70;6.22;;;;;;;;;;4995925;28;20022;-72
2020/12/23 03:09:11;;;;;;;7.80;6.00;;;;;;;;;;5013480;28;20476;-73
2020/12/23 03:11:37;;;;;;;7.53;5.38;;;;;;;;;;5013393;28;20026;-73
2020/12/23 03:14:04;;;;;;;8.68;5.40;;;;;;;;;;5013445;28;20049;-72
2020/12/23 03:16:30;;;;;;;7.10;4.82;;;;;;;;;;5013277;28;20032;-72
2020/12/23 03:18:56;;;;;;;4.75;4.03;;;;;;;;;;5013632;28;20026;-72
2020/12/23 03:21:22;;;;;;;5.68;3.63;;;;;;;;;;5013463;28;20033;-72
2020/12/23 03:23:49;;;;;;;6.63;4.22;;;;;;;;;;5013144;28;20061;-72
2020/12/23 03:26:15;;;;;;;5.45;3.60;;;;;;;;;;5013167;28;20026;-72
2020/12/23 03:28:41;;;;;;;4.57;3.35;;;;;;;;;;5013228;28;20081;-72
2020/12/23 03:31:07;;;;;;;5.65;3.38;;;;;;;;;;5013244;28;20030;-72
2020/12/23 03:33:33;;;;;;;6.28;4.13;;;;;;;;;;5013135;28;20026;-72
2020/12/23 03:36:00;;;;;;;5.28;4.03;;;;;;;;;;5012692;28;20030;-72
2020/12/23 03:38:26;;;;;;;4.82;3.47;;;;;;;;;;5013220;28;20022;-72
2020/12/23 03:40:53;;;;;;;5.22;4.00;;;;;;;;;;5013467;28;20105;-72
2020/12/23 03:43:19;;;;;;;7.95;4.25;;;;;;;;;;5012900;28;20045;-72
2020/12/23 03:45:45;;;;;;;4.63;3.38;;;;;;;;;;5012820;28;20081;-72
2020/12/23 03:48:11;;;;;;;6.70;4.38;;;;;;;;;;5012843;28;20022;-72
2020/12/23 03:50:37;;;;;;;5.43;3.70;;;;;;;;;;5012816;28;20036;-72
2020/12/23 03:53:03;;;;;;;6.75;3.10;;;;;;;;;;5012759;28;20482;-73
2020/12/23 03:55:29;;;;;;;3.42;2.60;;;;;;;;;;5012719;28;20022;-72
2020/12/23 03:57:55;;;;;;;5.10;2.58;;;;;;;;;;5012834;28;20026;-73
2020/12/23 04:00:22;;;;;;;4.88;2.80;;;;;;;;;;5012932;28;20088;-72
2020/12/23 04:02:48;;;;;;;4.25;2.90;;;;;;;;;;5012868;28;20036;-72
2020/12/23 04:05:14;;;;;;;3.60;2.53;;;;;;;;;;5012587;28;20101;-72
2020/12/23 04:07:40;;;;;;;5.38;2.88;;;;;;;;;;5012802;28;20022;-72
2020/12/23 04:10:07;;;;;;;3.80;2.67;;;;;;;;;;5012635;28;20461;-72
2020/12/23 04:12:33;;;;;;;4.53;2.65;;;;;;;;;;5012481;28;20363;-73
2020/12/23 04:14:59;;;;;;;3.92;2.53;;;;;;;;;;5012366;28;20477;-72
2020/12/23 04:17:25;;;;;;;4.85;3.03;;;;;;;;;;5012142;28;20041;-72
2020/12/23 04:19:51;;;;;;;5.72;3.70;;;;;;;;;;5012730;28;20530;-71
2020/12/23 04:22:17;;;;;;;4.18;2.80;;;;;;;;;;5012496;28;20030;-71
2020/12/23 04:24:43;;;;;;;5.03;2.58;;;;;;;;;;5012375;28;20030;-71
2020/12/23 04:27:09;;;;;;;10.23;3.45;;;;;;;;;;5012435;28;20440;-71
2020/12/23 04:29:35;;;;;;;5.93;3.30;;;;;;;;;;4994772;28;20382;-72
2020/12/23 04:32:01;;;;;;;4.53;3.33;;;;;;;;;;5012351;28;20462;-72
2020/12/23 04:34:28;;;;;;;4.85;2.85;;;;;;;;;;5012455;28;20033;-72
2020/12/23 04:36:54;;;;;;;3.47;2.33;;;;;;;;;;5012544;28;20026;-71
2020/12/23 04:39:20;;;;;;;4.78;2.30;;;;;;;;;;5012395;28;20030;-72
2020/12/23 04:41:46;;;;;;;5.90;2.47;;;;;;;;;;5012044;28;20029;-72
2020/12/23 04:44:12;;;;;;;3.85;2.33;;;;;;;;;;5012093;28;20030;-72
2020/12/23 04:46:41;;;;;;;4.95;3.05;;;;;;;;;;5013868;28;20033;-72
2020/12/23 04:49:08;;;;;;;6.22;2.78;;;;;;;;;;5015895;28;20484;-72
2020/12/23 04:51:35;;;;;;;4.63;3.00;;;;;;;;;;5016016;28;20022;-71
2020/12/23 04:54:03;;;;;;;4.38;2.67;;;;;;;;;;5015956;28;20413;-71
2020/12/23 04:56:30;;;;;;;5.55;3.08;;;;;;;;;;5015736;28;20026;-72
2020/12/23 04:58:57;;;;;;;4.38;3.55;;;;;;;;;;5016081;28;20478;-72
2020/12/23 05:01:23;;;;;;;8.07;3.90;;;;;;;;;;5015887;28;20025;-72
2020/12/23 05:03:51;;;;;;;7.80;4.13;;;;;;;;;;5015647;28;20077;-72
2020/12/23 05:06:17;;;;;;;8.05;4.05;;;;;;;;;;5015559;28;20478;-72
2020/12/23 05:08:43;;;;;;;8.50;4.07;;;;;;;;;;5015459;28;20034;-72
2020/12/23 05:11:10;;;;;;;6.88;4.07;;;;;;;;;;5015577;28;20022;-72
2020/12/23 05:13:37;;;;;;;5.95;3.83;;;;;;;;;;5015574;28;20109;-72
2020/12/23 05:16:04;;;;;;;6.43;3.88;;;;;;;;;;5015327;28;20474;-73
2020/12/23 05:18:34;;;;;;;6.85;3.50;;;;;;;;;;5015650;28;20406;-73
2020/12/23 05:21:00;;;;;;;5.90;3.35;;;;;;;;;;4997739;28;20049;-73
2020/12/23 05:23:30;;;;;;;6.55;3.47;;;;;;;;;;5015326;28;20482;-73
2020/12/23 05:26:06;;;;;;;5.43;3.95;;;;;;;;;;5015528;28;20041;-73
2020/12/23 05:28:32;;;;;;;6.32;4.15;;;;;;;;;;5012068;28;20493;-73
2020/12/23 05:31:01;;;;;;;9.02;4.68;;;;;;;;;;5014950;28;20060;-73
2020/12/23 05:33:27;;;;;;;7.25;3.75;;;;;;;;;;5015365;28;20018;-72
2020/12/23 05:35:55;;;;;;;6.60;4.32;;;;;;;;;;5015160;28;20057;-73
2020/12/23 05:38:21;;;;;;;6.57;3.80;;;;;;;;;;5015193;28;20097;-73
2020/12/23 05:40:47;;;;;;;5.65;3.20;;;;;;;;;;5014961;28;20533;-73
2020/12/23 05:43:14;;;;;;;6.18;3.90;;;;;;;;;;5015091;28;20025;-73
2020/12/23 05:45:44;;;;;;;6.07;3.75;;;;;;;;;;5015127;28;20029;-74
2020/12/23 05:48:13;;;;;;;4.32;3.20;;;;;;;;;;4997422;28;20021;-73
2020/12/23 05:50:40;;;;;;;5.13;3.53;;;;;;;;;;4997310;28;20022;-73
2020/12/23 05:53:12;;;;;;;6.20;3.85;;;;;;;;;;5014990;28;20370;-73
2020/12/23 05:55:43;;;;;;;7.47;3.85;;;;;;;;;;4997278;28;20030;-72
2020/12/23 05:58:10;;;;;;;5.10;3.67;;;;;;;;;;5013898;28;20413;-73
2020/12/23 06:00:36;;;;;;;7.15;3.55;;;;;;;;;;4997499;28;20390;-73
2020/12/23 06:03:19;;;;;;;6.53;3.53;;;;;;;;;;5014708;28;20036;-73
2020/12/23 06:05:48;;;;;;;5.50;3.33;;;;;;;;;;5014643;28;20030;-73
2020/12/23 06:08:16;;;;;;;10.52;5.60;;;;;;;;;;5014649;28;20466;-73
2020/12/23 06:10:42;;;;;;;6.72;5.03;;;;;;;;;;5014630;28;20426;-73
2020/12/23 06:13:11;;;;;;;8.00;4.90;;;;;;;;;;5014632;28;20049;-73
2020/12/23 06:15:39;;;;;;;9.80;4.60;;;;;;;;;;5014443;28;20049;-73
2020/12/23 06:18:09;;;;;;;7.40;4.70;;;;;;;;;;5014515;28;20034;-73
2020/12/23 06:20:37;;;;;;;5.05;3.42;;;;;;;;;;5014268;28;20381;-73
2020/12/23 06:23:03;;;;;;;6.28;3.30;;;;;;;;;;5014293;28;20029;-73
2020/12/23 06:25:32;;;;;;;5.13;3.30;;;;;;;;;;5014252;28;20030;-73
2020/12/23 06:28:00;;;;;;;4.95;3.53;;;;;;;;;;5014137;28;20389;-73
2020/12/23 06:30:29;;;;;;;15.93;8.90;;;;;;;;;;5014459;28;20030;-73
2020/12/23 06:33:00;;;;;;;9.25;5.78;;;;;;;;;;4996802;28;20022;-73
2020/12/23 06:35:26;;;;;;;6.28;4.82;;;;;;;;;;5014349;28;20022;-73
2020/12/23 06:37:52;;;;;;;10.40;5.35;;;;;;;;;;5014146;28;20033;-73
2020/12/23 06:40:18;;;;;;;9.27;6.32;;;;;;;;;;5013887;28;20026;-73
2020/12/23 06:42:50;;;;;;;7.47;5.45;;;;;;;;;;5013973;28;20112;-73
2020/12/23 06:45:16;;;;;;;9.60;5.72;;;;;;;;;;5013746;28;20068;-73
2020/12/23 06:47:43;;;;;;;11.70;6.38;;;;;;;;;;5013863;28;20025;-73
2020/12/23 06:50:16;;;;;;;10.98;6.25;;;;;;;;;;5013889;28;20029;-73
2020/12/23 06:52:43;;;;;;;12.30;7.35;;;;;;;;;;5013845;28;20022;-73
2020/12/23 06:55:09;;;;;;;9.98;6.35;;;;;;;;;;5013694;28;20014;-74
2020/12/23 06:57:35;;;;;;;15.73;6.93;;;;;;;;;;5013554;28;20189;-73
2020/12/23 07:00:04;;;;;;;13.30;7.38;;;;;;;;;;5013589;28;20080;-73
2020/12/23 07:02:50;;;;;;;12.55;7.40;;;;;;;;;;5013555;28;20028;-73
2020/12/23 07:05:22;;;;;;;12.77;7.63;;;;;;;;;;5013610;28;20053;-73
2020/12/23 07:07:50;;;;;;;11.68;7.57;;;;;;;;;;5013579;28;20026;-73
2020/12/23 07:10:17;;;;;;;12.07;7.70;;;;;;;;;;5012580;28;20026;-73
2020/12/23 07:12:43;;;;;;;11.18;7.38;;;;;;;;;;5013463;28;20026;-73
2020/12/23 07:15:10;;;;;;;12.40;8.27;;;;;;;;;;5008482;28;20471;-73
2020/12/23 07:17:38;;;;;;;10.13;6.80;;;;;;;;;;4991274;28;20031;-73
2020/12/23 07:20:05;;;;;;;6.50;4.57;;;;;;;;;;4991147;28;20386;-73
2020/12/23 07:22:32;;;;;;;7.22;4.90;;;;;;;;;;4991462;28;20022;-73
2020/12/23 07:24:59;;;;;;;8.10;5.13;;;;;;;;;;4991568;28;20042;-74
2020/12/23 07:27:25;;;;;;;7.32;5.03;;;;;;;;;;4991038;28;20115;-73
2020/12/23 07:30:04;;;;;;;7.55;4.75;;;;;;;;;;4991078;28;20026;-72
2020/12/23 07:32:30;;;;;;;8.88;6.10;;;;;;;;;;4991236;28;20113;-72
2020/12/23 07:34:59;;;;;;;10.88;5.35;;;;;;;;;;5001098;28;20057;-72
2020/12/23 07:37:27;;;;;;;8.60;4.95;;;;;;;;;;5010504;28;20148;-72
2020/12/23 07:39:53;;;;;;;10.27;5.60;;;;;;;;;;5009636;28;20022;-72
2020/12/23 07:42:20;;;;;;;11.48;6.30;;;;;;;;;;5010042;28;20109;-72
2020/12/23 07:44:49;;;;;;;8.60;6.38;;;;;;;;;;5010427;28;20046;-72
2020/12/23 07:47:20;;;;;;;15.45;9.00;;;;;;;;;;5010316;28;20029;-72
2020/12/23 07:49:57;;;;;;;11.80;8.77;;;;;;;;;;5009059;28;20034;-72
2020/12/23 07:52:23;;;;;;;13.82;8.80;;;;;;;;;;5010247;28;20018;-72
2020/12/23 07:54:49;;;;;;;9.80;7.40;;;;;;;;;;5010169;28;20041;-72
2020/12/23 07:57:35;;;;;;;11.65;7.93;;;;;;;;;;5008821;28;20084;-72
2020/12/23 08:00:03;;;;;;;11.70;7.28;;;;;;;;;;5010108;28;20478;-72
2020/12/23 08:02:29;;;;;;;12.98;7.57;;;;;;;;;;5008484;28;20029;-72
2020/12/23 08:04:55;;;;;;;12.20;8.25;;;;;;;;;;5009934;28;20041;-72
2020/12/23 08:07:24;;;;;;;14.85;9.90;;;;;;;;;;5010383;28;20481;-72
2020/12/23 08:09:51;;;;;;;12.85;9.40;;;;;;;;;;5010203;28;20022;-72
2020/12/23 08:12:21;;;;;;;13.07;8.23;;;;;;;;;;5010253;28;20018;-72
2020/12/23 08:14:48;;;;;;;15.45;8.98;;;;;;;;;;5009742;28;20028;-72
2020/12/23 08:17:23;;;;;;;16.05;11.68;;;;;;;;;;5009885;28;20034;-72
2020/12/23 08:20:03;;;;;;;14.40;10.73;;;;;;;;;;4992417;28;20429;-72
2020/12/23 08:22:29;;;;;;;14.30;9.80;;;;;;;;;;5013092;28;20108;-72
2020/12/23 08:25:02;;;;;;;12.73;9.48;;;;;;;;;;5013977;28;20136;-72
2020/12/23 08:27:29;;;;;;;14.53;10.67;;;;;;;;;;5013821;28;20068;-72
2020/12/23 08:29:56;;;;;;;13.30;9.80;;;;;;;;;;5014204;28;20087;-72
2020/12/23 08:32:25;;;;;;;16.00;10.15;;;;;;;;;;5014274;28;20108;-72
2020/12/23 08:34:53;;;;;;;17.75;11.32;;;;;;;;;;5014136;28;20493;-73
2020/12/23 08:37:23;;;;;;;20.73;12.95;;;;;;;;;;5013681;28;20033;-73
2020/12/23 08:39:53;;;;;;;23.70;13.63;;;;;;;;;;5013491;28;20021;-72
2020/12/23 08:42:20;;;;;;;21.48;12.57;;;;;;;;;;5012063;28;20036;-73
2020/12/23 08:44:49;;;;;;;20.13;11.43;;;;;;;;;;4981810;28;20110;-72
2020/12/23 08:47:19;;;;;;;18.95;10.40;;;;;;;;;;4992835;28;20046;-73
2020/12/23 08:49:48;;;;;;;15.77;9.55;;;;;;;;;;5010009;28;20520;-73
2020/12/23 08:52:20;;;;;;;16.27;10.00;;;;;;;;;;5013276;28;20026;-73
2020/12/23 08:54:48;;;;;;;17.98;10.45;;;;;;;;;;5013671;28;20079;-72
2020/12/23 08:57:15;;;;;;;16.95;10.45;;;;;;;;;;5013777;28;20037;-73
2020/12/23 08:59:41;;;;;;;21.77;12.20;;;;;;;;;;5013432;28;20050;-73
2020/12/23 09:02:11;;;;;;;17.85;11.40;;;;;;;;;;4995904;28;20109;-73
2020/12/23 09:04:37;;;;;;;20.45;14.05;;;;;;;;;;4993481;28;20712;-73
2020/12/23 09:07:04;;;;;;;16.63;10.43;;;;;;;;;;4993752;28;20214;-72
2020/12/23 09:09:30;;;;;;;14.85;9.32;;;;;;;;;;4975982;28;20050;-73
2020/12/23 09:11:57;;;;;;;14.27;8.13;;;;;;;;;;4993842;28;20057;-72
2020/12/23 09:14:26;;;;;;;15.55;8.65;;;;;;;;;;4993770;28;20018;-73
2020/12/23 09:16:53;;;;;;;12.60;8.02;;;;;;;;;;4993475;28;20493;-73
2020/12/23 09:19:19;;;;;;;9.80;5.78;;;;;;;;;;4993278;28;20363;-72
2020/12/23 09:21:55;;;;;;;6.95;3.88;;;;;;;;;;4993757;28;20022;-73
2020/12/23 09:24:22;;;;;;;7.82;3.50;;;;;;;;;;4993412;28;20134;-73
2020/12/23 09:26:48;;;;;;;6.53;3.85;;;;;;;;;;4993328;28;20026;-73
2020/12/23 09:29:14;;;;;;;4.22;3.28;;;;;;;;;;4993171;28;20032;-73
2020/12/23 09:31:49;;;;;;;6.90;4.53;;;;;;;;;;4993175;28;20474;-73
2020/12/23 09:34:21;;;;;;;8.40;4.05;;;;;;;;;;4974772;28;20254;-73
2020/12/23 09:36:54;;;;;;;10.20;4.43;;;;;;;;;;4995767;28;20050;-73
2020/12/23 09:39:20;;;;;;;6.40;4.30;;;;;;;;;;5012322;28;20038;-72
2020/12/23 09:41:46;;;;;;;8.95;4.95;;;;;;;;;;5012677;28;20030;-72
2020/12/23 09:44:13;;;;;;;12.55;8.05;;;;;;;;;;4995027;28;20045;-73
2020/12/23 09:46:39;;;;;;;24.10;14.00;;;;;;;;;;5012838;28;20022;-72
2020/12/23 09:49:05;;;;;;;20.88;14.68;;;;;;;;;;5008652;28;20513;-72
2020/12/23 09:51:31;;;;;;;13.13;9.20;;;;;;;;;;5009037;28;20030;-72
2020/12/23 09:53:57;;;;;;;13.13;9.35;;;;;;;;;;5010725;28;20026;-72
2020/12/23 09:56:23;;;;;;;21.17;13.48;;;;;;;;;;5010716;28;20022;-73
2020/12/23 09:58:49;;;;;;;16.75;11.63;;;;;;;;;;5012278;28;20104;-72
2020/12/23 10:01:15;;;;;;;14.68;9.60;;;;;;;;;;5012068;28;20030;-73
2020/12/23 10:03:41;;;;;;;17.35;9.23;;;;;;;;;;5011825;28;20037;-74
2020/12/23 10:06:07;;;;;;;9.90;7.40;;;;;;;;;;5011899;28;20022;-74
2020/12/23 10:08:33;;;;;;;10.25;6.60;;;;;;;;;;5012222;28;20113;-73
2020/12/23 10:10:59;;;;;;;11.43;6.68;;;;;;;;;;5012110;28;20030;-73
2020/12/23 10:13:25;;;;;;;10.63;7.22;;;;;;;;;;5012090;28;20415;-73
2020/12/23 10:15:51;;;;;;;13.00;8.82;;;;;;;;;;5011862;28;20030;-73
2020/12/23 10:18:17;;;;;;;12.18;8.23;;;;;;;;;;5011894;28;20026;-73
2020/12/23 10:20:43;;;;;;;9.30;6.60;;;;;;;;;;5011759;28;20068;-73
2020/12/23 10:23:09;;;;;;;8.02;6.22;;;;;;;;;;5011705;28;20057;-73
2020/12/23 10:25:36;;;;;;;10.77;7.43;;;;;;;;;;5011836;28;20057;-72
2020/12/23 10:28:03;;;;;;;18.67;9.70;;;;;;;;;;5011419;28;20468;-73
2020/12/23 10:30:29;;;;;;;11.65;7.85;;;;;;;;;;5008986;28;20105;-73
2020/12/23 10:32:55;;;;;;;12.20;8.00;;;;;;;;;;4992381;28;20033;-73
2020/12/23 10:35:21;;;;;;;17.00;8.10;;;;;;;;;;4992100;28;20030;-72
2020/12/23 10:37:47;;;;;;;14.73;8.02;;;;;;;;;;5002493;28;20022;-73
2020/12/23 10:40:13;;;;;;;14.15;7.78;;;;;;;;;;5011266;28;20021;-73
2020/12/23 10:42:39;;;;;;;9.95;7.30;;;;;;;;;;5010793;28;20044;-73
2020/12/23 10:45:06;;;;;;;12.32;7.38;;;;;;;;;;5010703;28;20052;-73
2020/12/23 10:47:33;;;;;;;12.00;7.70;;;;;;;;;;5010768;28;20481;-72
2020/12/23 10:49:59;;;;;;;11.23;6.57;;;;;;;;;;5010900;28;20057;-73
2020/12/23 10:52:27;;;;;;;11.52;6.95;;;;;;;;;;4993125;28;20022;-73
2020/12/23 10:54:54;;;;;;;11.55;8.38;;;;;;;;;;5010678;28;20030;-73
2020/12/23 10:57:20;;;;;;;11.07;7.63;;;;;;;;;;5010682;28;20029;-73
2020/12/23 10:59:46;;;;;;;11.25;8.52;;;;;;;;;;5010699;28;20058;-73
2020/12/23 11:02:12;;;;;;;12.30;8.38;;;;;;;;;;5010305;28;20076;-73
2020/12/23 11:04:38;;;;;;;14.55;8.60;;;;;;;;;;5009659;28;20034;-73
2020/12/23 11:07:05;;;;;;;11.82;7.82;;;;;;;;;;5010346;28;20123;-72
2020/12/23 11:09:31;;;;;;;11.00;8.07;;;;;;;;;;5010407;28;20099;-72
2020/12/23 11:11:57;;;;;;;11.02;8.50;;;;;;;;;;5010429;28;20034;-73
2020/12/23 11:14:23;;;;;;;9.50;7.22;;;;;;;;;;5010455;28;20466;-73
2020/12/23 11:16:50;;;;;;;13.95;8.88;;;;;;;;;;5010177;28;20030;-73
2020/12/23 11:19:16;;;;;;;14.02;8.82;;;;;;;;;;5010707;28;20025;-73
2020/12/23 11:21:42;;;;;;;13.50;8.90;;;;;;;;;;5010164;28;20454;-74
2020/12/23 11:24:08;;;;;;;11.90;7.68;;;;;;;;;;5010669;28;20037;-73
2020/12/23 11:26:35;;;;;;;13.35;9.75;;;;;;;;;;5009917;28;20056;-74
2020/12/23 11:29:01;;;;;;;13.15;10.32;;;;;;;;;;5009544;28;20029;-73
2020/12/23 11:31:27;;;;;;;16.65;11.80;;;;;;;;;;4992644;28;20477;-73
2020/12/23 11:33:53;;;;;;;14.15;11.10;;;;;;;;;;5010656;28;20038;-73
2020/12/23 11:36:19;;;;;;;15.98;10.82;;;;;;;;;;5010199;28;20025;-72
2020/12/23 11:38:45;;;;;;;15.65;11.30;;;;;;;;;;4991399;28;20614;-72
2020/12/23 11:41:12;;;;;;;16.08;11.48;;;;;;;;;;4990720;28;20097;-72
2020/12/23 11:43:38;;;;;;;17.27;11.02;;;;;;;;;;4990641;28;20038;-72
2020/12/23 11:46:04;;;;;;;14.68;9.73;;;;;;;;;;4990764;28;20394;-72
2020/12/23 11:48:31;;;;;;;11.40;8.20;;;;;;;;;;4973027;28;20050;-72
2020/12/23 11:50:57;;;;;;;13.88;9.93;;;;;;;;;;4990275;28;20034;-72
2020/12/23 11:53:23;;;;;;;13.98;9.23;;;;;;;;;;4990555;28;20026;-72
2020/12/23 11:55:50;;;;;;;13.75;9.10;;;;;;;;;;4989796;28;20105;-72
2020/12/23 11:58:16;;;;;;;12.13;9.30;;;;;;;;;;4989963;28;20566;-72
2020/12/23 12:00:45;;;;;;;14.35;10.65;;;;;;;;;;4990461;28;20095;-72
2020/12/23 12:03:11;;;;;;;14.27;10.27;;;;;;;;;;4989896;28;20026;-72
2020/12/23 12:05:37;;;;;;;16.08;10.73;;;;;;;;;;4990184;28;20405;-72
2020/12/23 12:08:07;;;;;;;15.75;10.38;;;;;;;;;;4990457;28;20061;-72
2020/12/23 12:10:33;;;;;;;15.25;9.30;;;;;;;;;;4990298;28;20023;-72
2020/12/23 12:13:00;;;;;;;15.23;11.20;;;;;;;;;;4990276;28;20049;-72
2020/12/23 12:15:26;;;;;;;17.25;9.98;;;;;;;;;;4989832;28;20034;-72
2020/12/23 12:17:52;;;;;;;17.23;9.90;;;;;;;;;;4990238;28;20041;-72
2020/12/23 12:20:19;;;;;;;15.80;9.82;;;;;;;;;;4990116;28;20046;-72
2020/12/23 12:22:45;;;;;;;13.70;9.18;;;;;;;;;;4990156;28;20398;-71
2020/12/23 12:25:14;;;;;;;12.55;8.50;;;;;;;;;;4990095;28;20053;-72
2020/12/23 12:27:40;;;;;;;11.02;6.78;;;;;;;;;;4989766;28;20026;-72
2020/12/23 12:30:06;;;;;;;14.38;7.40;;;;;;;;;;4990067;28;20038;-72
2020/12/23 12:32:32;;;;;;;11.80;6.93;;;;;;;;;;4990124;28;20113;-72
2020/12/23 12:34:58;;;;;;;13.45;8.95;;;;;;;;;;4989944;28;20460;-72
2020/12/23 12:37:25;;;;;;;11.27;7.38;;;;;;;;;;4997588;28;20022;-73
2020/12/23 12:39:51;;;;;;;11.63;7.32;;;;;;;;;;5009023;28;20088;-72
2020/12/23 12:42:17;;;;;;;10.93;8.13;;;;;;;;;;5009312;28;20080;-75
2020/12/23 12:44:43;;;;;;;9.23;7.30;;;;;;;;;;5009348;28;20041;-75
2020/12/23 12:47:09;;;;;;;11.73;7.45;;;;;;;;;;5009298;28;20026;-75
2020/12/23 12:49:35;;;;;;;9.82;6.88;;;;;;;;;;5009368;28;20231;-75
2020/12/23 12:52:01;;;;;;;10.68;7.75;;;;;;;;;;5009143;28;20029;-75
2020/12/23 12:54:27;;;;;;;14.45;7.28;;;;;;;;;;5009394;28;20030;-75
2020/12/23 12:56:56;;;;;;;11.10;7.63;;;;;;;;;;5009398;28;20029;-75
2020/12/23 12:59:22;;;;;;;12.23;8.63;;;;;;;;;;5009526;28;20152;-75
2020/12/23 13:01:49;;;;;;;13.25;8.63;;;;;;;;;;5009411;28;20022;-74
2020/12/23 13:04:15;;;;;;;15.07;10.25;;;;;;;;;;5008890;28;20509;-75
2020/12/23 13:06:41;;;;;;;20.08;10.95;;;;;;;;;;5009292;28;20026;-75
2020/12/23 13:09:07;;;;;;;24.05;13.63;;;;;;;;;;5011533;28;20104;-75
2020/12/23 13:11:33;;;;;;;18.98;12.80;;;;;;;;;;5006981;28;20491;-74
2020/12/23 13:13:59;;;;;;;25.48;13.77;;;;;;;;;;5011998;28;20389;-75
2020/12/23 13:16:29;;;;;;;17.27;11.57;;;;;;;;;;5012234;28;20541;-75
2020/12/23 13:18:56;;;;;;;17.13;11.88;;;;;;;;;;5012828;28;20105;-75
2020/12/23 13:21:22;;;;;;;23.02;14.20;;;;;;;;;;5013151;28;20022;-75
2020/12/23 13:23:48;;;;;;;19.13;13.55;;;;;;;;;;5012405;28;20045;-75
2020/12/23 13:26:15;;;;;;;17.98;12.75;;;;;;;;;;5012496;28;20034;-75
2020/12/23 13:28:42;;;;;;;18.58;12.15;;;;;;;;;;5012066;28;20084;-75
2020/12/23 13:31:08;;;;;;;16.75;11.20;;;;;;;;;;5011737;28;20018;-75
2020/12/23 13:33:35;;;;;;;18.98;12.00;;;;;;;;;;5012238;28;20532;-74
2020/12/23 13:36:01;;;;;;;20.58;13.45;;;;;;;;;;5012434;28;20034;-74
2020/12/23 13:38:27;;;;;;;18.88;13.73;;;;;;;;;;5012243;28;20026;-74
2020/12/23 13:40:54;;;;;;;16.98;12.35;;;;;;;;;;5012110;28;20034;-74
2020/12/23 13:43:20;;;;;;;19.90;14.00;;;;;;;;;;5012145;28;20494;-74
2020/12/23 13:45:46;;;;;;;16.45;13.00;;;;;;;;;;5012390;28;20041;-74
2020/12/23 13:48:12;;;;;;;21.85;13.82;;;;;;;;;;5012315;28;20022;-75
2020/12/23 13:50:39;;;;;;;25.08;14.25;;;;;;;;;;5011982;28;20025;-74
2020/12/23 13:53:05;;;;;;;18.73;13.35;;;;;;;;;;5011649;28;20482;-74
2020/12/23 13:55:31;;;;;;;16.20;12.93;;;;;;;;;;5011913;28;20034;-74
2020/12/23 13:58:01;;;;;;;19.40;13.85;;;;;;;;;;5011382;28;20029;-74
2020/12/23 14:00:27;;;;;;;18.70;12.55;;;;;;;;;;5011811;28;20076;-74
2020/12/23 14:02:53;;;;;;;15.32;10.95;;;;;;;;;;5011734;28;20501;-74
2020/12/23 14:05:21;;;;;;;16.02;10.80;;;;;;;;;;5011850;28;20037;-75
2020/12/23 14:07:47;;;;;;;15.95;11.25;;;;;;;;;;5012113;28;20029;-74
2020/12/23 14:10:13;;;;;;;15.43;10.75;;;;;;;;;;5011505;28;20050;-74
2020/12/23 14:12:39;;;;;;;15.77;10.35;;;;;;;;;;5011453;28;20079;-74
2020/12/23 14:15:06;;;;;;;13.27;10.48;;;;;;;;;;5010700;28;20026;-74
2020/12/23 14:17:32;;;;;;;14.15;9.88;;;;;;;;;;5011379;28;20025;-74
2020/12/23 14:19:58;;;;;;;20.17;13.27;;;;;;;;;;5010915;28;20084;-74
2020/12/23 14:22:24;;;;;;;17.17;13.07;;;;;;;;;;5011759;28;20045;-75
2020/12/23 14:24:51;;;;;;;15.45;11.25;;;;;;;;;;5011714;28;20526;-74
2020/12/23 14:27:17;;;;;;;19.63;11.48;;;;;;;;;;5011582;28;20022;-74
2020/12/23 14:29:43;;;;;;;16.88;10.68;;;;;;;;;;5011637;28;20436;-75
2020/12/23 14:32:10;;;;;;;14.52;9.70;;;;;;;;;;5011790;28;20022;-75